sensor_id;sensor_type;location;lat;lon;timestamp;pressure;altitude;pressure_sealevel;temperature;humidity
74310;BME280;62722;51.142;17.052;2022-11-20T00:01:11;100147.03;;;-4.04;85.69
74310;BME280;62722;51.142;17.052;2022-11-20T00:03:42;100141.94;;;-4.12;86.19
74310;BME280;62722;51.142;17.052;2022-11-20T00:06:11;100135.09;;;-4.11;86.54
74310;BME280;62722;51.142;17.052;2022-11-20T00:08:41;100135.91;;;-4.08;86.54
74310;BME280;62722;51.142;17.052;2022-11-20T00:11:10;100132.47;;;-4.10;85.91
74310;BME280;62722;51.142;17.052;2022-11-20T00:13:38;100130.81;;;-4.15;85.89
74310;BME280;62722;51.142;17.052;2022-11-20T00:16:09;100125.69;;;-4.20;86.73
74310;BME280;62722;51.142;17.052;2022-11-20T00:18:37;100130.84;;;-4.20;86.67
74310;BME280;62722;51.142;17.052;2022-11-20T00:21:07;100130.03;;;-4.22;86.88
74310;BME280;62722;51.142;17.052;2022-11-20T00:23:34;100134.25;;;-4.15;86.74
74310;BME280;62722;51.142;17.052;2022-11-20T00:26:05;100131.66;;;-4.13;86.32
74310;BME280;62722;51.142;17.052;2022-11-20T00:28:33;100134.22;;;-4.13;86.44
74310;BME280;62722;51.142;17.052;2022-11-20T00:31:02;100127.38;;;-4.16;86.35
74310;BME280;62722;51.142;17.052;2022-11-20T00:33:30;100130.81;;;-4.17;86.51
74310;BME280;62722;51.142;17.052;2022-11-20T00:36:01;100148.00;;;-4.14;86.96
74310;BME280;62722;51.142;17.052;2022-11-20T00:38:30;100136.00;;;-4.20;86.40
74310;BME280;62722;51.142;17.052;2022-11-20T00:40:59;100148.13;;;-4.31;86.68
74310;BME280;62722;51.142;17.052;2022-11-20T00:43:30;100147.19;;;-4.24;87.34
74310;BME280;62722;51.142;17.052;2022-11-20T00:45:59;100139.56;;;-4.36;87.40
74310;BME280;62722;51.142;17.052;2022-11-20T00:48:27;100142.06;;;-4.25;88.23
74310;BME280;62722;51.142;17.052;2022-11-20T00:50:55;100140.34;;;-4.28;87.56
74310;BME280;62722;51.142;17.052;2022-11-20T00:53:23;100143.03;;;-4.37;87.56
74310;BME280;62722;51.142;17.052;2022-11-20T00:55:54;100155.91;;;-4.42;87.71
74310;BME280;62722;51.142;17.052;2022-11-20T00:58:22;100149.06;;;-4.46;87.74
74310;BME280;62722;51.142;17.052;2022-11-20T01:00:52;100156.78;;;-4.43;88.08
74310;BME280;62722;51.142;17.052;2022-11-20T01:03:19;100155.06;;;-4.42;87.80
74310;BME280;62722;51.142;17.052;2022-11-20T01:05:46;100153.34;;;-4.40;87.62
74310;BME280;62722;51.142;17.052;2022-11-20T01:08:13;100158.50;;;-4.42;87.85
74310;BME280;62722;51.142;17.052;2022-11-20T01:10:41;100154.19;;;-4.39;87.96
74310;BME280;62722;51.142;17.052;2022-11-20T01:13:08;100143.88;;;-4.36;88.29
74310;BME280;62722;51.142;17.052;2022-11-20T01:15:54;100148.13;;;-4.31;87.93
74310;BME280;62722;51.142;17.052;2022-11-20T01:18:23;100152.38;;;-4.25;87.56
74310;BME280;62722;51.142;17.052;2022-11-20T01:20:50;100155.81;;;-4.26;87.61
74310;BME280;62722;51.142;17.052;2022-11-20T01:23:17;100160.09;;;-4.28;87.60
74310;BME280;62722;51.142;17.052;2022-11-20T01:25:45;100161.84;;;-4.29;87.87
74310;BME280;62722;51.142;17.052;2022-11-20T01:28:21;100153.25;;;-4.28;87.42
74310;BME280;62722;51.142;17.052;2022-11-20T01:30:49;100150.66;;;-4.26;87.57
74310;BME280;62722;51.142;17.052;2022-11-20T01:33:18;100139.53;;;-4.31;87.66
74310;BME280;62722;51.142;17.052;2022-11-20T01:35:48;100142.97;;;-4.31;87.77
74310;BME280;62722;51.142;17.052;2022-11-20T01:38:16;100147.25;;;-4.31;87.64
74310;BME280;62722;51.142;17.052;2022-11-20T01:40:43;100146.41;;;-4.30;87.67
74310;BME280;62722;51.142;17.052;2022-11-20T01:43:14;100140.38;;;-4.31;87.56
74310;BME280;62722;51.142;17.052;2022-11-20T01:48:41;100141.28;;;-4.38;87.88
74310;BME280;62722;51.142;17.052;2022-11-20T01:51:17;100141.28;;;-4.38;87.47
74310;BME280;62722;51.142;17.052;2022-11-20T01:53:46;100143.91;;;-4.41;87.67
74310;BME280;62722;51.142;17.052;2022-11-20T01:56:14;100145.69;;;-4.54;87.65
74310;BME280;62722;51.142;17.052;2022-11-20T01:58:46;100148.28;;;-4.52;88.12
74310;BME280;62722;51.142;17.052;2022-11-20T02:01:15;100139.72;;;-4.57;88.49
74310;BME280;62722;51.142;17.052;2022-11-20T02:03:45;100150.84;;;-4.54;88.07
74310;BME280;62722;51.142;17.052;2022-11-20T02:06:17;100143.97;;;-4.52;88.21
74310;BME280;62722;51.142;17.052;2022-11-20T02:08:46;100135.41;;;-4.52;87.94
74310;BME280;62722;51.142;17.052;2022-11-20T02:11:13;100130.22;;;-4.49;87.92
74310;BME280;62722;51.142;17.052;2022-11-20T02:13:40;100137.09;;;-4.48;87.68
74310;BME280;62722;51.142;17.052;2022-11-20T02:16:13;100133.63;;;-4.46;87.84
74310;BME280;62722;51.142;17.052;2022-11-20T02:18:45;100129.34;;;-4.44;87.60
74310;BME280;62722;51.142;17.052;2022-11-20T02:21:24;100131.03;;;-4.41;87.55
74310;BME280;62722;51.142;17.052;2022-11-20T02:26:54;100126.72;;;-4.40;86.21
74310;BME280;62722;51.142;17.052;2022-11-20T02:29:26;100135.31;;;-4.42;86.69
74310;BME280;62722;51.142;17.052;2022-11-20T02:31:55;100139.56;;;-4.39;87.39
74310;BME280;62722;51.142;17.052;2022-11-20T02:34:23;100145.63;;;-4.40;86.84
74310;BME280;62722;51.142;17.052;2022-11-20T02:36:51;100138.81;;;-4.50;86.89
74310;BME280;62722;51.142;17.052;2022-11-20T02:39:23;100134.56;;;-4.57;87.13
74310;BME280;62722;51.142;17.052;2022-11-20T02:41:52;100137.16;;;-4.62;87.65
74310;BME280;62722;51.142;17.052;2022-11-20T02:44:20;100135.50;;;-4.67;87.67
74310;BME280;62722;51.142;17.052;2022-11-20T02:46:47;100145.81;;;-4.70;87.75
74310;BME280;62722;51.142;17.052;2022-11-20T02:49:15;100136.38;;;-4.73;87.89
74310;BME280;62722;51.142;17.052;2022-11-20T02:51:42;100138.94;;;-4.73;87.96
74310;BME280;62722;51.142;17.052;2022-11-20T02:54:09;100144.97;;;-4.69;87.78
74310;BME280;62722;51.142;17.052;2022-11-20T02:56:39;100142.38;;;-4.72;87.79
74310;BME280;62722;51.142;17.052;2022-11-20T02:59:09;100129.53;;;-4.74;87.81
74310;BME280;62722;51.142;17.052;2022-11-20T03:01:36;100112.47;;;-4.92;87.86
74310;BME280;62722;51.142;17.052;2022-11-20T03:04:04;100136.44;;;-4.83;87.89
74310;BME280;62722;51.142;17.052;2022-11-20T03:06:32;100133.91;;;-4.88;87.76
74310;BME280;62722;51.142;17.052;2022-11-20T03:08:59;100142.50;;;-4.89;88.33
74310;BME280;62722;51.142;17.052;2022-11-20T03:11:26;100141.66;;;-4.93;88.48
74310;BME280;62722;51.142;17.052;2022-11-20T03:13:55;100137.34;;;-4.94;88.48
74310;BME280;62722;51.142;17.052;2022-11-20T03:16:23;100146.78;;;-4.89;88.55
74310;BME280;62722;51.142;17.052;2022-11-20T03:18:52;100136.47;;;-4.86;88.40
74310;BME280;62722;51.142;17.052;2022-11-20T03:21:19;100144.16;;;-4.83;88.03
74310;BME280;62722;51.142;17.052;2022-11-20T03:23:47;100127.03;;;-4.86;87.85
74310;BME280;62722;51.142;17.052;2022-11-20T03:26:16;100129.59;;;-4.84;87.90
74310;BME280;62722;51.142;17.052;2022-11-20T03:28:47;100124.41;;;-4.83;88.45
74310;BME280;62722;51.142;17.052;2022-11-20T03:31:19;100127.84;;;-4.78;87.97
74310;BME280;62722;51.142;17.052;2022-11-20T03:33:46;100115.88;;;-4.85;87.56
74310;BME280;62722;51.142;17.052;2022-11-20T03:36:16;100124.41;;;-4.80;87.41
74310;BME280;62722;51.142;17.052;2022-11-20T03:38:44;100131.28;;;-4.83;87.17
74310;BME280;62722;51.142;17.052;2022-11-20T03:41:12;100127.91;;;-4.88;87.12
74310;BME280;62722;51.142;17.052;2022-11-20T03:43:40;100133.94;;;-4.96;86.70
74310;BME280;62722;51.142;17.052;2022-11-20T03:46:08;100136.56;;;-5.05;87.02
74310;BME280;62722;51.142;17.052;2022-11-20T03:48:39;100146.91;;;-5.18;87.61
74310;BME280;62722;51.142;17.052;2022-11-20T03:51:08;100137.50;;;-5.27;87.88
74310;BME280;62722;51.142;17.052;2022-11-20T03:53:36;100147.78;;;-5.24;88.67
74310;BME280;62722;51.142;17.052;2022-11-20T03:56:04;100140.06;;;-5.24;88.49
74310;BME280;62722;51.142;17.052;2022-11-20T03:58:32;100138.31;;;-5.16;88.06
74310;BME280;62722;51.142;17.052;2022-11-20T04:01:05;100134.03;;;-5.14;87.86
74310;BME280;62722;51.142;17.052;2022-11-20T04:03:33;100140.03;;;-5.15;87.88
74310;BME280;62722;51.142;17.052;2022-11-20T04:06:07;100136.59;;;-5.17;88.15
74310;BME280;62722;51.142;17.052;2022-11-20T04:08:34;100146.91;;;-5.20;87.93
74310;BME280;62722;51.142;17.052;2022-11-20T04:11:09;100146.94;;;-5.21;87.65
74310;BME280;62722;51.142;17.052;2022-11-20T04:13:37;100145.22;;;-5.27;87.53
74310;BME280;62722;51.142;17.052;2022-11-20T04:16:08;100153.78;;;-5.28;87.72
74310;BME280;62722;51.142;17.052;2022-11-20T04:18:36;100152.91;;;-5.19;87.79
74310;BME280;62722;51.142;17.052;2022-11-20T04:21:06;100149.47;;;-5.17;87.22
74310;BME280;62722;51.142;17.052;2022-11-20T04:23:33;100153.75;;;-5.16;86.81
74310;BME280;62722;51.142;17.052;2022-11-20T04:26:02;100158.94;;;-5.22;86.52
74310;BME280;62722;51.142;17.052;2022-11-20T04:28:29;100152.97;;;-5.33;86.99
74310;BME280;62722;51.142;17.052;2022-11-20T04:31:07;100159.84;;;-5.36;87.19
74310;BME280;62722;51.142;17.052;2022-11-20T04:33:36;100155.56;;;-5.45;87.24
74310;BME280;62722;51.142;17.052;2022-11-20T04:36:06;100145.28;;;-5.50;87.62
74310;BME280;62722;51.142;17.052;2022-11-20T04:38:34;100139.31;;;-5.53;88.28
74310;BME280;62722;51.142;17.052;2022-11-20T04:41:03;100140.16;;;-5.54;88.56
74310;BME280;62722;51.142;17.052;2022-11-20T04:43:31;100151.28;;;-5.42;88.96
74310;BME280;62722;51.142;17.052;2022-11-20T04:45:59;100133.25;;;-5.37;88.42
74310;BME280;62722;51.142;17.052;2022-11-20T04:48:27;100132.38;;;-5.30;87.83
74310;BME280;62722;51.142;17.052;2022-11-20T04:50:55;100128.94;;;-5.29;87.04
74310;BME280;62722;51.142;17.052;2022-11-20T04:53:23;100123.78;;;-5.27;87.33
74310;BME280;62722;51.142;17.052;2022-11-20T04:55:51;100133.22;;;-5.28;86.96
74310;BME280;62722;51.142;17.052;2022-11-20T04:58:18;100119.53;;;-5.33;87.00
74310;BME280;62722;51.142;17.052;2022-11-20T05:00:45;100122.94;;;-5.28;87.45
74310;BME280;62722;51.142;17.052;2022-11-20T05:03:12;100110.91;;;-5.21;87.06
74310;BME280;62722;51.142;17.052;2022-11-20T05:05:40;100116.00;;;-5.17;86.43
74310;BME280;62722;51.142;17.052;2022-11-20T05:08:07;100110.03;;;-5.20;86.37
74310;BME280;62722;51.142;17.052;2022-11-20T05:10:35;100114.38;;;-5.28;86.10
74310;BME280;62722;51.142;17.052;2022-11-20T05:13:02;100110.13;;;-5.37;86.65
74310;BME280;62722;51.142;17.052;2022-11-20T05:15:30;100114.44;;;-5.45;86.95
74310;BME280;62722;51.142;17.052;2022-11-20T05:17:57;100106.78;;;-5.59;87.50
74310;BME280;62722;51.142;17.052;2022-11-20T05:20:24;100108.47;;;-5.65;87.91
74310;BME280;62722;51.142;17.052;2022-11-20T05:22:51;100107.63;;;-5.64;88.46
74310;BME280;62722;51.142;17.052;2022-11-20T05:25:19;100106.78;;;-5.63;88.49
74310;BME280;62722;51.142;17.052;2022-11-20T05:27:47;100105.06;;;-5.63;88.67
74310;BME280;62722;51.142;17.052;2022-11-20T05:30:15;100109.34;;;-5.62;88.57
74310;BME280;62722;51.142;17.052;2022-11-20T05:32:42;100104.16;;;-5.54;89.17
74310;BME280;62722;51.142;17.052;2022-11-20T05:35:10;100095.56;;;-5.44;88.86
74310;BME280;62722;51.142;17.052;2022-11-20T05:37:37;100096.38;;;-5.39;87.99
74310;BME280;62722;51.142;17.052;2022-11-20T05:40:05;100093.88;;;-5.44;87.50
74310;BME280;62722;51.142;17.052;2022-11-20T05:42:33;100100.72;;;-5.53;87.59
74310;BME280;62722;51.142;17.052;2022-11-20T05:45:04;100097.34;;;-5.63;88.21
74310;BME280;62722;51.142;17.052;2022-11-20T05:47:32;100100.78;;;-5.68;88.20
74310;BME280;62722;51.142;17.052;2022-11-20T05:50:00;100095.66;;;-5.74;88.37
74310;BME280;62722;51.142;17.052;2022-11-20T05:52:28;100100.81;;;-5.77;89.02
74310;BME280;62722;51.142;17.052;2022-11-20T05:54:56;100105.09;;;-5.79;89.14
74310;BME280;62722;51.142;17.052;2022-11-20T05:57:23;100095.69;;;-5.83;89.34
74310;BME280;62722;51.142;17.052;2022-11-20T05:59:51;100091.47;;;-5.87;89.42
74310;BME280;62722;51.142;17.052;2022-11-20T06:02:19;100087.97;;;-5.83;89.38
74310;BME280;62722;51.142;17.052;2022-11-20T06:04:47;100084.53;;;-5.82;89.61
74310;BME280;62722;51.142;17.052;2022-11-20T06:07:15;100094.00;;;-5.84;89.71
74310;BME280;62722;51.142;17.052;2022-11-20T06:09:42;100089.69;;;-5.85;89.44
74310;BME280;62722;51.142;17.052;2022-11-20T06:12:10;100094.03;;;-5.87;89.50
74310;BME280;62722;51.142;17.052;2022-11-20T06:14:37;100094.03;;;-5.87;89.44
74310;BME280;62722;51.142;17.052;2022-11-20T06:17:04;100096.53;;;-5.81;89.43
74310;BME280;62722;51.142;17.052;2022-11-20T06:19:33;100093.09;;;-5.79;89.64
74310;BME280;62722;51.142;17.052;2022-11-20T06:22:00;100087.97;;;-5.77;89.60
74310;BME280;62722;51.142;17.052;2022-11-20T06:24:27;100091.41;;;-5.81;89.49
74310;BME280;62722;51.142;17.052;2022-11-20T06:26:54;100092.28;;;-5.85;89.95
74310;BME280;62722;51.142;17.052;2022-11-20T06:29:22;100088.84;;;-5.84;89.91
74310;BME280;62722;51.142;17.052;2022-11-20T06:31:49;100077.75;;;-5.88;89.92
74310;BME280;62722;51.142;17.052;2022-11-20T06:34:16;100086.25;;;-5.83;89.74
74310;BME280;62722;51.142;17.052;2022-11-20T06:36:44;100086.25;;;-5.81;89.74
74310;BME280;62722;51.142;17.052;2022-11-20T06:39:12;100075.13;;;-5.80;89.93
74310;BME280;62722;51.142;17.052;2022-11-20T06:41:39;100083.66;;;-5.75;89.92
74310;BME280;62722;51.142;17.052;2022-11-20T06:44:06;100082.81;;;-5.76;89.44
74310;BME280;62722;51.142;17.052;2022-11-20T06:46:33;100077.69;;;-5.77;88.91
74310;BME280;62722;51.142;17.052;2022-11-20T06:49:01;100083.69;;;-5.81;88.79
74310;BME280;62722;51.142;17.052;2022-11-20T06:51:28;100083.69;;;-5.81;88.76
74310;BME280;62722;51.142;17.052;2022-11-20T06:53:57;100081.97;;;-5.79;88.75
74310;BME280;62722;51.142;17.052;2022-11-20T06:56:24;100086.25;;;-5.78;88.38
74310;BME280;62722;51.142;17.052;2022-11-20T06:58:51;100094.81;;;-5.79;88.69
74310;BME280;62722;51.142;17.052;2022-11-20T07:01:18;100092.28;;;-5.85;88.27
74310;BME280;62722;51.142;17.052;2022-11-20T07:03:48;100087.13;;;-5.85;88.76
74310;BME280;62722;51.142;17.052;2022-11-20T07:06:16;100090.56;;;-5.85;88.73
74310;BME280;62722;51.142;17.052;2022-11-20T07:08:44;100084.59;;;-5.87;89.26
74310;BME280;62722;51.142;17.052;2022-11-20T07:11:13;100095.69;;;-5.83;88.75
74310;BME280;62722;51.142;17.052;2022-11-20T07:13:41;100095.69;;;-5.80;88.89
74310;BME280;62722;51.142;17.052;2022-11-20T07:16:08;100087.09;;;-5.76;89.23
74310;BME280;62722;51.142;17.052;2022-11-20T07:18:35;100089.66;;;-5.72;89.39
74310;BME280;62722;51.142;17.052;2022-11-20T07:21:03;100081.09;;;-5.69;89.29
74310;BME280;62722;51.142;17.052;2022-11-20T07:23:31;100077.63;;;-5.64;89.74
74310;BME280;62722;51.142;17.052;2022-11-20T07:25:58;100071.63;;;-5.58;89.97
74310;BME280;62722;51.142;17.052;2022-11-20T07:28:27;100069.88;;;-5.50;90.14
74310;BME280;62722;51.142;17.052;2022-11-20T07:30:54;100070.69;;;-5.42;89.93
74310;BME280;62722;51.142;17.052;2022-11-20T07:33:21;100069.81;;;-5.35;90.04
74310;BME280;62722;51.142;17.052;2022-11-20T07:35:48;100075.78;;;-5.25;90.05
74310;BME280;62722;51.142;17.052;2022-11-20T07:38:16;100074.84;;;-5.17;89.68
74310;BME280;62722;51.142;17.052;2022-11-20T07:40:43;100073.16;;;-5.15;89.29
74310;BME280;62722;51.142;17.052;2022-11-20T07:43:10;100072.28;;;-5.14;89.16
74310;BME280;62722;51.142;17.052;2022-11-20T07:45:39;100071.38;;;-5.10;89.34
74310;BME280;62722;51.142;17.052;2022-11-20T07:48:06;100067.94;;;-5.03;89.25
74310;BME280;62722;51.142;17.052;2022-11-20T07:50:33;100057.63;;;-5.00;88.78
74310;BME280;62722;51.142;17.052;2022-11-20T07:53:02;100058.41;;;-4.88;89.04
74310;BME280;62722;51.142;17.052;2022-11-20T07:55:29;100054.06;;;-4.83;88.91
74310;BME280;62722;51.142;17.052;2022-11-20T07:57:57;100046.38;;;-4.86;88.79
74310;BME280;62722;51.142;17.052;2022-11-20T08:00:24;100048.88;;;-4.77;88.85
74310;BME280;62722;51.142;17.052;2022-11-20T08:02:54;100049.69;;;-4.71;88.74
74310;BME280;62722;51.142;17.052;2022-11-20T08:05:21;100053.00;;;-4.57;88.64
74310;BME280;62722;51.142;17.052;2022-11-20T08:07:48;100052.13;;;-4.51;88.14
74310;BME280;62722;51.142;17.052;2022-11-20T08:10:16;100050.34;;;-4.45;88.31
74310;BME280;62722;51.142;17.052;2022-11-20T08:12:44;100051.97;;;-4.36;88.37
74310;BME280;62722;51.142;17.052;2022-11-20T08:15:29;100054.44;;;-4.24;88.08
74310;BME280;62722;51.142;17.052;2022-11-20T08:18:02;100049.25;;;-4.18;88.10
74310;BME280;62722;51.142;17.052;2022-11-20T08:20:30;100055.19;;;-4.13;87.18
74310;BME280;62722;51.142;17.052;2022-11-20T08:22:58;100044.03;;;-4.10;87.18
74310;BME280;62722;51.142;17.052;2022-11-20T08:25:26;100038.84;;;-4.09;87.54
74310;BME280;62722;51.142;17.052;2022-11-20T08:27:57;100033.59;;;-4.00;87.20
74310;BME280;62722;51.142;17.052;2022-11-20T08:30:24;100036.09;;;-3.94;86.70
74310;BME280;62722;51.142;17.052;2022-11-20T08:32:52;100026.59;;;-3.92;87.26
74310;BME280;62722;51.142;17.052;2022-11-20T08:35:21;100029.09;;;-3.84;86.45
74310;BME280;62722;51.142;17.052;2022-11-20T08:37:48;100036.75;;;-3.75;86.61
74310;BME280;62722;51.142;17.052;2022-11-20T08:40:16;100037.53;;;-3.68;86.94
74310;BME280;62722;51.142;17.052;2022-11-20T08:42:47;100024.59;;;-3.64;87.41
74310;BME280;62722;51.142;17.052;2022-11-20T08:45:15;100017.66;;;-3.59;86.33
74310;BME280;62722;51.142;17.052;2022-11-20T08:47:43;100016.75;;;-3.56;86.07
74310;BME280;62722;51.142;17.052;2022-11-20T08:50:11;100010.69;;;-3.52;85.46
74310;BME280;62722;51.142;17.052;2022-11-20T08:52:40;100016.59;;;-3.44;85.69
74310;BME280;62722;51.142;17.052;2022-11-20T08:55:08;100017.38;;;-3.39;85.50
74310;BME280;62722;51.142;17.052;2022-11-20T08:57:37;100020.78;;;-3.35;85.57
74310;BME280;62722;51.142;17.052;2022-11-20T09:00:06;100023.34;;;-3.34;85.35
74310;BME280;62722;51.142;17.052;2022-11-20T09:02:34;100019.81;;;-3.28;84.36
74310;BME280;62722;51.142;17.052;2022-11-20T09:05:01;100014.63;;;-3.27;85.05
74310;BME280;62722;51.142;17.052;2022-11-20T09:07:29;100013.72;;;-3.24;85.17
74310;BME280;62722;51.142;17.052;2022-11-20T09:09:58;100014.53;;;-3.19;85.44
74310;BME280;62722;51.142;17.052;2022-11-20T09:12:25;100011.00;;;-3.12;82.95
74310;BME280;62722;51.142;17.052;2022-11-20T09:14:52;100009.13;;;-3.03;83.59
74310;BME280;62722;51.142;17.052;2022-11-20T09:17:20;100009.81;;;-2.91;83.03
74310;BME280;62722;51.142;17.052;2022-11-20T09:19:47;100011.41;;;-2.83;82.12
74310;BME280;62722;51.142;17.052;2022-11-20T09:22:14;100006.19;;;-2.80;82.85
74310;BME280;62722;51.142;17.052;2022-11-20T09:24:41;100002.69;;;-2.74;82.77
74310;BME280;62722;51.142;17.052;2022-11-20T09:27:10;100009.44;;;-2.67;82.53
74310;BME280;62722;51.142;17.052;2022-11-20T09:29:37;100001.53;;;-2.58;82.03
74310;BME280;62722;51.142;17.052;2022-11-20T09:32:05;99994.50;;;-2.50;81.55
74310;BME280;62722;51.142;17.052;2022-11-20T09:34:32;99996.16;;;-2.46;82.18
74310;BME280;62722;51.142;17.052;2022-11-20T09:36:59;99996.91;;;-2.39;81.49
74310;BME280;62722;51.142;17.052;2022-11-20T09:39:26;99997.75;;;-2.39;81.91
74310;BME280;62722;51.142;17.052;2022-11-20T09:42:14;99987.34;;;-2.33;81.70
74310;BME280;62722;51.142;17.052;2022-11-20T09:47:45;99987.28;;;-2.30;81.62
74310;BME280;62722;51.142;17.052;2022-11-20T09:50:23;99979.47;;;-2.28;82.33
74310;BME280;62722;51.142;17.052;2022-11-20T09:53:04;99974.31;;;-2.28;82.28
74310;BME280;62722;51.142;17.052;2022-11-20T09:55:37;99977.69;;;-2.25;82.04
74310;BME280;62722;51.142;17.052;2022-11-20T09:58:12;99969.97;;;-2.26;81.67
74310;BME280;62722;51.142;17.052;2022-11-20T10:00:42;99967.31;;;-2.22;82.15
74310;BME280;62722;51.142;17.052;2022-11-20T10:03:14;99968.06;;;-2.17;82.01
74310;BME280;62722;51.142;17.052;2022-11-20T10:05:45;99962.00;;;-2.16;82.53
74310;BME280;62722;51.142;17.052;2022-11-20T10:08:17;99967.09;;;-2.11;81.08
74310;BME280;62722;51.142;17.052;2022-11-20T10:10:46;99955.63;;;-1.98;79.65
74310;BME280;62722;51.142;17.052;2022-11-20T10:13:30;99952.81;;;-1.87;78.92
74310;BME280;62722;51.142;17.052;2022-11-20T10:16:11;99952.03;;;-1.89;80.18
74310;BME280;62722;51.142;17.052;2022-11-20T10:18:54;99954.59;;;-1.89;79.88
74310;BME280;62722;51.142;17.052;2022-11-20T10:21:31;99943.41;;;-1.91;80.02
74310;BME280;62722;51.142;17.052;2022-11-20T10:24:23;99935.66;;;-1.90;78.54
74310;BME280;62722;51.142;17.052;2022-11-20T10:27:00;99933.78;;;-1.83;79.04
74310;BME280;62722;51.142;17.052;2022-11-20T10:29:33;99929.31;;;-1.75;78.38
74310;BME280;62722;51.142;17.052;2022-11-20T10:32:02;99922.19;;;-1.66;77.70
74310;BME280;62722;51.142;17.052;2022-11-20T10:34:34;99923.03;;;-1.64;77.31
74310;BME280;62722;51.142;17.052;2022-11-20T10:37:09;99922.00;;;-1.57;76.31
74310;BME280;62722;51.142;17.052;2022-11-20T10:39:44;99920.22;;;-1.55;76.48
74310;BME280;62722;51.142;17.052;2022-11-20T10:42:17;99931.41;;;-1.54;77.06
74310;BME280;62722;51.142;17.052;2022-11-20T10:44:51;99928.88;;;-1.56;77.50
74310;BME280;62722;51.142;17.052;2022-11-20T10:47:30;99923.66;;;-1.54;77.67
74310;BME280;62722;51.142;17.052;2022-11-20T10:50:02;99919.19;;;-1.48;76.76
74310;BME280;62722;51.142;17.052;2022-11-20T10:52:37;99925.22;;;-1.47;77.61
74310;BME280;62722;51.142;17.052;2022-11-20T10:55:20;99923.53;;;-1.48;77.12
74310;BME280;62722;51.142;17.052;2022-11-20T10:57:57;99914.88;;;-1.47;77.12
74310;BME280;62722;51.142;17.052;2022-11-20T11:00:32;99911.41;;;-1.46;76.86
74310;BME280;62722;51.142;17.052;2022-11-20T11:02:59;99908.66;;;-1.40;77.41
74310;BME280;62722;51.142;17.052;2022-11-20T11:05:36;99909.50;;;-1.38;77.60
74310;BME280;62722;51.142;17.052;2022-11-20T11:08:10;99900.00;;;-1.37;78.10
74310;BME280;62722;51.142;17.052;2022-11-20T11:10:45;99893.88;;;-1.33;76.54
74310;BME280;62722;51.142;17.052;2022-11-20T11:13:21;99890.28;;;-1.28;76.10
74310;BME280;62722;51.142;17.052;2022-11-20T11:15:55;99900.47;;;-1.22;76.63
74310;BME280;62722;51.142;17.052;2022-11-20T11:21:24;99890.00;;;-1.16;75.33
74310;BME280;62722;51.142;17.052;2022-11-20T11:24:00;99896.88;;;-1.15;76.14
74310;BME280;62722;51.142;17.052;2022-11-20T11:26:28;99890.78;;;-1.14;75.39
74310;BME280;62722;51.142;17.052;2022-11-20T11:28:56;99888.94;;;-1.09;74.79
74310;BME280;62722;51.142;17.052;2022-11-20T11:31:27;99884.56;;;-1.07;74.43
74310;BME280;62722;51.142;17.052;2022-11-20T11:34:04;99870.53;;;-0.96;72.82
74310;BME280;62722;51.142;17.052;2022-11-20T11:36:35;99862.75;;;-0.96;74.36
74310;BME280;62722;51.142;17.052;2022-11-20T11:39:03;99856.75;;;-0.99;74.21
74310;BME280;62722;51.142;17.052;2022-11-20T11:41:33;99849.06;;;-1.02;73.37
74310;BME280;62722;51.142;17.052;2022-11-20T11:44:15;99851.47;;;-0.95;72.21
74310;BME280;62722;51.142;17.052;2022-11-20T11:47:03;99848.69;;;-0.88;71.19
74310;BME280;62722;51.142;17.052;2022-11-20T11:49:32;99839.31;;;-0.92;72.98
74310;BME280;62722;51.142;17.052;2022-11-20T11:52:03;99851.34;;;-0.89;73.68
74310;BME280;62722;51.142;17.052;2022-11-20T11:54:38;99848.59;;;-0.83;71.52
74310;BME280;62722;51.142;17.052;2022-11-20T11:57:26;99845.88;;;-0.79;71.63
74310;BME280;62722;51.142;17.052;2022-11-20T12:00:10;99824.47;;;-0.85;71.67
74310;BME280;62722;51.142;17.052;2022-11-20T12:03:20;99824.59;;;-0.90;72.46
74310;BME280;62722;51.142;17.052;2022-11-20T12:05:57;99837.09;;;-0.73;72.21
74310;BME280;62722;51.142;17.052;2022-11-20T12:08:30;99831.03;;;-0.74;71.60
74310;BME280;62722;51.142;17.052;2022-11-20T12:11:03;99838.69;;;-0.68;71.52
74310;BME280;62722;51.142;17.052;2022-11-20T12:13:44;99836.94;;;-0.67;72.76
74310;BME280;62722;51.142;17.052;2022-11-20T12:16:15;99829.97;;;-0.65;72.54
74310;BME280;62722;51.142;17.052;2022-11-20T12:18:46;99824.59;;;-0.59;70.96
74310;BME280;62722;51.142;17.052;2022-11-20T12:21:20;99824.38;;;-0.52;70.57
74310;BME280;62722;51.142;17.052;2022-11-20T12:24:02;99815.59;;;-0.46;71.02
74310;BME280;62722;51.142;17.052;2022-11-20T12:26:43;99819.75;;;-0.40;70.26
74310;BME280;62722;51.142;17.052;2022-11-20T12:29:19;99821.47;;;-0.39;71.22
74310;BME280;62722;51.142;17.052;2022-11-20T12:32:00;99820.75;;;-0.44;72.62
74310;BME280;62722;51.142;17.052;2022-11-20T12:34:50;99819.00;;;-0.44;71.59
74310;BME280;62722;51.142;17.052;2022-11-20T12:37:30;99817.38;;;-0.48;73.08
74310;BME280;62722;51.142;17.052;2022-11-20T12:40:17;99812.69;;;-0.34;72.57
74310;BME280;62722;51.142;17.052;2022-11-20T12:42:57;99821.22;;;-0.30;73.73
74310;BME280;62722;51.142;17.052;2022-11-20T12:46:08;99812.59;;;-0.31;72.17
74310;BME280;62722;51.142;17.052;2022-11-20T12:49:05;99817.66;;;-0.26;72.91
74310;BME280;62722;51.142;17.052;2022-11-20T12:51:55;99811.41;;;-0.21;72.83
74310;BME280;62722;51.142;17.052;2022-11-20T12:54:54;99812.25;;;-0.19;73.29
74310;BME280;62722;51.142;17.052;2022-11-20T12:57:29;99810.63;;;-0.23;73.73
74310;BME280;62722;51.142;17.052;2022-11-20T13:00:09;99798.44;;;-0.21;73.41
74310;BME280;62722;51.142;17.052;2022-11-20T13:03:00;99791.50;;;-0.19;73.47
74310;BME280;62722;51.142;17.052;2022-11-20T13:05:40;99787.00;;;-0.14;72.99
74310;BME280;62722;51.142;17.052;2022-11-20T13:08:18;99786.16;;;-0.14;74.23
74310;BME280;62722;51.142;17.052;2022-11-20T13:10:51;99788.03;;;-0.19;74.83
74310;BME280;62722;51.142;17.052;2022-11-20T13:13:31;99777.81;;;-0.24;74.79